sensor_id;sensor_type;location;lat;lon;timestamp;P1;durP1;ratioP1;P2;durP2;ratioP2
36225;SDS011;22268;52.010;4.716;2022-10-16T00:03:06;5.25;;;1.98;;
36225;SDS011;22268;52.010;4.716;2022-10-16T00:05:32;7.68;;;2.40;;
36225;SDS011;22268;52.010;4.716;2022-10-16T00:07:57;12.80;;;2.72;;
36225;SDS011;22268;52.010;4.716;2022-10-16T00:10:36;5.22;;;2.42;;
36225;SDS011;22268;52.010;4.716;2022-10-16T00:13:09;8.27;;;2.40;;
36225;SDS011;22268;52.010;4.716;2022-10-16T00:15:37;13.38;;;2.53;;
36225;SDS011;22268;52.010;4.716;2022-10-16T00:18:08;7.40;;;2.20;;
36225;SDS011;22268;52.010;4.716;2022-10-16T00:20:42;10.60;;;2.35;;
36225;SDS011;22268;52.010;4.716;2022-10-16T00:23:10;5.85;;;2.12;;
36225;SDS011;22268;52.010;4.716;2022-10-16T00:25:38;7.00;;;2.20;;
36225;SDS011;22268;52.010;4.716;2022-10-16T00:28:07;4.75;;;1.80;;
36225;SDS011;22268;52.010;4.716;2022-10-16T00:30:47;6.50;;;2.20;;
36225;SDS011;22268;52.010;4.716;2022-10-16T00:33:12;4.65;;;1.80;;
36225;SDS011;22268;52.010;4.716;2022-10-16T00:35:40;5.82;;;2.30;;
36225;SDS011;22268;52.010;4.716;2022-10-16T00:38:08;3.58;;;1.70;;
36225;SDS011;22268;52.010;4.716;2022-10-16T00:40:42;4.43;;;2.37;;
36225;SDS011;22268;52.010;4.716;2022-10-16T00:43:41;4.72;;;2.53;;
36225;SDS011;22268;52.010;4.716;2022-10-16T00:46:48;3.87;;;1.90;;
36225;SDS011;22268;52.010;4.716;2022-10-16T00:48:52;4.50;;;2.35;;
36225;SDS011;22268;52.010;4.716;2022-10-16T00:51:19;5.50;;;2.45;;
36225;SDS011;22268;52.010;4.716;2022-10-16T00:53:49;6.20;;;2.90;;
36225;SDS011;22268;52.010;4.716;2022-10-16T00:56:15;7.32;;;3.40;;
36225;SDS011;22268;52.010;4.716;2022-10-16T00:58:41;5.75;;;2.10;;
36225;SDS011;22268;52.010;4.716;2022-10-16T01:03:35;5.03;;;2.72;;
36225;SDS011;22268;52.010;4.716;2022-10-16T01:08:51;9.57;;;2.80;;
36225;SDS011;22268;52.010;4.716;2022-10-16T01:11:41;7.82;;;3.00;;
36225;SDS011;22268;52.010;4.716;2022-10-16T01:14:11;7.00;;;2.83;;
36225;SDS011;22268;52.010;4.716;2022-10-16T01:16:55;6.50;;;2.20;;
36225;SDS011;22268;52.010;4.716;2022-10-16T01:19:32;4.20;;;2.78;;
36225;SDS011;22268;52.010;4.716;2022-10-16T01:22:00;20.12;;;3.87;;
36225;SDS011;22268;52.010;4.716;2022-10-16T01:24:38;6.40;;;3.00;;
36225;SDS011;22268;52.010;4.716;2022-10-16T01:27:46;7.82;;;2.15;;
36225;SDS011;22268;52.010;4.716;2022-10-16T01:29:57;4.12;;;2.37;;
36225;SDS011;22268;52.010;4.716;2022-10-16T01:41:05;4.35;;;2.42;;
36225;SDS011;22268;52.010;4.716;2022-10-16T02:01:51;5.78;;;3.03;;
36225;SDS011;22268;52.010;4.716;2022-10-16T02:04:28;7.22;;;3.12;;
36225;SDS011;22268;52.010;4.716;2022-10-16T02:06:54;8.75;;;3.35;;
36225;SDS011;22268;52.010;4.716;2022-10-16T02:09:40;6.33;;;2.77;;
36225;SDS011;22268;52.010;4.716;2022-10-16T02:12:14;6.65;;;3.08;;
36225;SDS011;22268;52.010;4.716;2022-10-16T02:14:49;5.87;;;3.15;;
36225;SDS011;22268;52.010;4.716;2022-10-16T02:17:46;5.25;;;4.22;;
36225;SDS011;22268;52.010;4.716;2022-10-16T02:20:11;6.50;;;3.28;;
36225;SDS011;22268;52.010;4.716;2022-10-16T02:27:53;5.95;;;2.92;;
36225;SDS011;22268;52.010;4.716;2022-10-16T02:30:27;4.78;;;2.60;;
36225;SDS011;22268;52.010;4.716;2022-10-16T02:33:34;5.93;;;3.08;;
36225;SDS011;22268;52.010;4.716;2022-10-16T02:36:09;5.82;;;2.97;;
36225;SDS011;22268;52.010;4.716;2022-10-16T02:38:37;5.10;;;2.97;;
36225;SDS011;22268;52.010;4.716;2022-10-16T02:44:04;5.32;;;2.50;;
36225;SDS011;22268;52.010;4.716;2022-10-16T02:48:55;4.90;;;2.62;;
36225;SDS011;22268;52.010;4.716;2022-10-16T02:51:21;5.45;;;2.65;;
36225;SDS011;22268;52.010;4.716;2022-10-16T02:53:46;6.43;;;2.33;;
36225;SDS011;22268;52.010;4.716;2022-10-16T02:56:11;3.70;;;2.45;;
36225;SDS011;22268;52.010;4.716;2022-10-16T02:58:37;8.95;;;3.33;;
36225;SDS011;22268;52.010;4.716;2022-10-16T03:01:02;4.32;;;2.58;;
36225;SDS011;22268;52.010;4.716;2022-10-16T03:03:27;4.12;;;2.75;;
36225;SDS011;22268;52.010;4.716;2022-10-16T03:05:53;3.85;;;2.35;;
36225;SDS011;22268;52.010;4.716;2022-10-16T03:08:21;3.83;;;2.58;;
36225;SDS011;22268;52.010;4.716;2022-10-16T03:10:49;8.43;;;2.75;;
36225;SDS011;22268;52.010;4.716;2022-10-16T03:13:14;4.87;;;2.53;;
36225;SDS011;22268;52.010;4.716;2022-10-16T03:18:05;6.28;;;2.90;;
36225;SDS011;22268;52.010;4.716;2022-10-16T03:20:30;7.15;;;2.47;;
36225;SDS011;22268;52.010;4.716;2022-10-16T03:22:56;7.03;;;2.55;;
36225;SDS011;22268;52.010;4.716;2022-10-16T03:25:21;5.40;;;2.58;;
36225;SDS011;22268;52.010;4.716;2022-10-16T03:27:46;3.60;;;2.40;;
36225;SDS011;22268;52.010;4.716;2022-10-16T03:32:39;7.68;;;2.85;;
36225;SDS011;22268;52.010;4.716;2022-10-16T03:35:05;7.22;;;2.42;;
36225;SDS011;22268;52.010;4.716;2022-10-16T03:37:33;6.53;;;2.00;;
36225;SDS011;22268;52.010;4.716;2022-10-16T03:40:02;3.35;;;2.17;;
36225;SDS011;22268;52.010;4.716;2022-10-16T03:42:27;3.17;;;2.10;;
36225;SDS011;22268;52.010;4.716;2022-10-16T03:47:28;6.65;;;2.35;;
36225;SDS011;22268;52.010;4.716;2022-10-16T03:50:07;4.87;;;2.28;;
36225;SDS011;22268;52.010;4.716;2022-10-16T03:52:33;9.25;;;2.45;;
36225;SDS011;22268;52.010;4.716;2022-10-16T03:57:33;4.45;;;2.85;;
36225;SDS011;22268;52.010;4.716;2022-10-16T04:02:26;4.60;;;2.35;;
36225;SDS011;22268;52.010;4.716;2022-10-16T04:05:00;8.20;;;3.05;;
36225;SDS011;22268;52.010;4.716;2022-10-16T04:07:25;4.80;;;2.53;;
36225;SDS011;22268;52.010;4.716;2022-10-16T04:09:51;5.07;;;2.20;;
36225;SDS011;22268;52.010;4.716;2022-10-16T04:12:29;4.95;;;2.60;;
36225;SDS011;22268;52.010;4.716;2022-10-16T04:23:53;4.07;;;3.08;;
36225;SDS011;22268;52.010;4.716;2022-10-16T04:38:59;8.05;;;3.95;;
36225;SDS011;22268;52.010;4.716;2022-10-16T04:50:39;5.97;;;2.67;;
36225;SDS011;22268;52.010;4.716;2022-10-16T04:56:15;4.20;;;2.53;;
36225;SDS011;22268;52.010;4.716;2022-10-16T05:01:05;10.40;;;3.45;;
36225;SDS011;22268;52.010;4.716;2022-10-16T05:03:31;5.10;;;2.97;;
36225;SDS011;22268;52.010;4.716;2022-10-16T05:05:59;5.80;;;2.90;;
36225;SDS011;22268;52.010;4.716;2022-10-16T05:08:29;5.20;;;2.53;;
36225;SDS011;22268;52.010;4.716;2022-10-16T05:10:57;5.40;;;2.65;;
36225;SDS011;22268;52.010;4.716;2022-10-16T05:13:23;9.85;;;3.20;;
36225;SDS011;22268;52.010;4.716;2022-10-16T05:15:51;7.87;;;2.83;;
36225;SDS011;22268;52.010;4.716;2022-10-16T05:21:00;9.63;;;2.92;;
36225;SDS011;22268;52.010;4.716;2022-10-16T05:26:42;7.62;;;2.60;;
36225;SDS011;22268;52.010;4.716;2022-10-16T05:29:20;6.47;;;2.58;;
36225;SDS011;22268;52.010;4.716;2022-10-16T05:34:21;10.23;;;2.80;;
36225;SDS011;22268;52.010;4.716;2022-10-16T05:36:47;6.20;;;2.53;;
36225;SDS011;22268;52.010;4.716;2022-10-16T05:39:43;4.78;;;2.90;;
36225;SDS011;22268;52.010;4.716;2022-10-16T05:48:51;5.30;;;2.55;;
36225;SDS011;22268;52.010;4.716;2022-10-16T05:51:26;3.87;;;2.60;;
36225;SDS011;22268;52.010;4.716;2022-10-16T05:54:00;9.05;;;2.80;;
36225;SDS011;22268;52.010;4.716;2022-10-16T05:56:28;6.75;;;2.45;;
36225;SDS011;22268;52.010;4.716;2022-10-16T06:01:19;7.70;;;3.05;;
36225;SDS011;22268;52.010;4.716;2022-10-16T06:04:15;6.45;;;2.50;;
36225;SDS011;22268;52.010;4.716;2022-10-16T06:09:25;7.35;;;2.95;;
36225;SDS011;22268;52.010;4.716;2022-10-16T06:14:32;5.60;;;2.30;;
36225;SDS011;22268;52.010;4.716;2022-10-16T06:19:46;10.45;;;2.53;;
36225;SDS011;22268;52.010;4.716;2022-10-16T06:22:38;7.55;;;2.45;;
36225;SDS011;22268;52.010;4.716;2022-10-16T06:25:06;4.68;;;2.40;;
36225;SDS011;22268;52.010;4.716;2022-10-16T06:30:27;7.45;;;2.05;;
36225;SDS011;22268;52.010;4.716;2022-10-16T06:33:13;5.50;;;1.85;;
36225;SDS011;22268;52.010;4.716;2022-10-16T06:35:40;10.38;;;1.95;;
36225;SDS011;22268;52.010;4.716;2022-10-16T06:38:08;6.43;;;1.60;;
36225;SDS011;22268;52.010;4.716;2022-10-16T06:40:34;4.78;;;2.33;;
36225;SDS011;22268;52.010;4.716;2022-10-16T06:42:59;8.50;;;1.60;;
36225;SDS011;22268;52.010;4.716;2022-10-16T06:45:24;6.87;;;1.73;;
36225;SDS011;22268;52.010;4.716;2022-10-16T06:47:53;6.43;;;1.87;;
36225;SDS011;22268;52.010;4.716;2022-10-16T06:50:24;9.48;;;1.65;;
36225;SDS011;22268;52.010;4.716;2022-10-16T06:52:49;9.27;;;2.15;;
36225;SDS011;22268;52.010;4.716;2022-10-16T06:55:14;7.37;;;1.95;;
36225;SDS011;22268;52.010;4.716;2022-10-16T06:57:42;6.45;;;1.95;;
36225;SDS011;22268;52.010;4.716;2022-10-16T07:00:10;8.75;;;2.53;;
36225;SDS011;22268;52.010;4.716;2022-10-16T07:02:35;3.20;;;1.92;;
36225;SDS011;22268;52.010;4.716;2022-10-16T07:07:26;4.78;;;2.42;;
36225;SDS011;22268;52.010;4.716;2022-10-16T07:12:17;8.70;;;2.65;;
36225;SDS011;22268;52.010;4.716;2022-10-16T07:14:42;8.38;;;2.53;;
36225;SDS011;22268;52.010;4.716;2022-10-16T07:17:08;10.43;;;2.50;;
36225;SDS011;22268;52.010;4.716;2022-10-16T07:19:33;7.95;;;2.65;;
36225;SDS011;22268;52.010;4.716;2022-10-16T07:22:01;8.00;;;3.05;;
36225;SDS011;22268;52.010;4.716;2022-10-16T07:24:28;5.37;;;2.25;;
36225;SDS011;22268;52.010;4.716;2022-10-16T07:26:53;8.35;;;2.30;;
36225;SDS011;22268;52.010;4.716;2022-10-16T07:29:25;9.98;;;3.00;;
36225;SDS011;22268;52.010;4.716;2022-10-16T07:31:50;8.98;;;2.45;;
36225;SDS011;22268;52.010;4.716;2022-10-16T07:34:16;6.55;;;2.28;;
36225;SDS011;22268;52.010;4.716;2022-10-16T07:36:41;8.43;;;2.80;;
36225;SDS011;22268;52.010;4.716;2022-10-16T07:41:32;8.30;;;2.90;;
36225;SDS011;22268;52.010;4.716;2022-10-16T07:44:01;8.73;;;2.97;;
36225;SDS011;22268;52.010;4.716;2022-10-16T07:46:37;6.03;;;2.58;;
36225;SDS011;22268;52.010;4.716;2022-10-16T07:49:12;8.23;;;2.80;;
36225;SDS011;22268;52.010;4.716;2022-10-16T07:54:44;12.90;;;3.55;;
36225;SDS011;22268;52.010;4.716;2022-10-16T07:57:09;5.35;;;2.22;;
36225;SDS011;22268;52.010;4.716;2022-10-16T07:59:35;7.45;;;2.50;;
36225;SDS011;22268;52.010;4.716;2022-10-16T08:02:00;8.30;;;2.35;;
36225;SDS011;22268;52.010;4.716;2022-10-16T08:07:07;11.82;;;2.40;;
36225;SDS011;22268;52.010;4.716;2022-10-16T08:09:33;7.65;;;2.33;;
36225;SDS011;22268;52.010;4.716;2022-10-16T08:11:59;10.23;;;3.00;;
36225;SDS011;22268;52.010;4.716;2022-10-16T08:14:24;11.32;;;2.92;;
36225;SDS011;22268;52.010;4.716;2022-10-16T08:16:49;8.18;;;2.25;;
36225;SDS011;22268;52.010;4.716;2022-10-16T08:19:17;10.57;;;2.58;;
36225;SDS011;22268;52.010;4.716;2022-10-16T08:22:04;10.35;;;2.75;;
36225;SDS011;22268;52.010;4.716;2022-10-16T08:24:34;11.48;;;2.62;;
36225;SDS011;22268;52.010;4.716;2022-10-16T08:33:21;9.60;;;2.25;;
36225;SDS011;22268;52.010;4.716;2022-10-16T08:35:55;10.77;;;2.42;;
36225;SDS011;22268;52.010;4.716;2022-10-16T08:38:20;12.75;;;2.97;;
36225;SDS011;22268;52.010;4.716;2022-10-16T08:44:28;11.27;;;3.10;;
36225;SDS011;22268;52.010;4.716;2022-10-16T08:47:13;8.10;;;2.30;;
36225;SDS011;22268;52.010;4.716;2022-10-16T08:49:40;14.13;;;2.97;;
36225;SDS011;22268;52.010;4.716;2022-10-16T08:52:08;7.93;;;2.42;;
36225;SDS011;22268;52.010;4.716;2022-10-16T08:54:36;9.90;;;2.78;;
36225;SDS011;22268;52.010;4.716;2022-10-16T08:57:20;8.32;;;2.33;;
36225;SDS011;22268;52.010;4.716;2022-10-16T09:12:02;10.55;;;3.40;;
36225;SDS011;22268;52.010;4.716;2022-10-16T09:20:01;14.45;;;3.78;;
36225;SDS011;22268;52.010;4.716;2022-10-16T09:22:29;13.35;;;3.50;;
36225;SDS011;22268;52.010;4.716;2022-10-16T09:25:04;9.20;;;2.62;;
36225;SDS011;22268;52.010;4.716;2022-10-16T09:30:40;14.18;;;2.65;;
36225;SDS011;22268;52.010;4.716;2022-10-16T09:33:05;9.10;;;3.05;;
36225;SDS011;22268;52.010;4.716;2022-10-16T09:35:32;11.35;;;2.92;;
36225;SDS011;22268;52.010;4.716;2022-10-16T09:38:34;12.93;;;3.28;;
36225;SDS011;22268;52.010;4.716;2022-10-16T09:40:52;11.55;;;2.78;;
36225;SDS011;22268;52.010;4.716;2022-10-16T09:43:25;14.93;;;2.97;;
36225;SDS011;22268;52.010;4.716;2022-10-16T09:46:06;14.55;;;2.62;;
36225;SDS011;22268;52.010;4.716;2022-10-16T09:48:47;13.40;;;2.50;;
36225;SDS011;22268;52.010;4.716;2022-10-16T09:51:18;12.90;;;3.35;;
36225;SDS011;22268;52.010;4.716;2022-10-16T09:54:30;9.55;;;2.53;;
36225;SDS011;22268;52.010;4.716;2022-10-16T09:56:37;10.73;;;2.80;;
36225;SDS011;22268;52.010;4.716;2022-10-16T09:59:15;11.07;;;2.83;;
36225;SDS011;22268;52.010;4.716;2022-10-16T10:02:08;15.23;;;3.22;;
36225;SDS011;22268;52.010;4.716;2022-10-16T10:10:41;10.68;;;2.70;;
36225;SDS011;22268;52.010;4.716;2022-10-16T10:30:52;25.35;;;3.80;;
36225;SDS011;22268;52.010;4.716;2022-10-16T10:33:24;12.18;;;2.85;;
36225;SDS011;22268;52.010;4.716;2022-10-16T10:47:40;16.20;;;2.67;;
36225;SDS011;22268;52.010;4.716;2022-10-16T11:01:54;7.95;;;2.62;;
36225;SDS011;22268;52.010;4.716;2022-10-16T11:10:53;12.77;;;2.80;;
36225;SDS011;22268;52.010;4.716;2022-10-16T11:16:58;11.35;;;2.67;;
36225;SDS011;22268;52.010;4.716;2022-10-16T11:19:21;15.02;;;3.58;;
36225;SDS011;22268;52.010;4.716;2022-10-16T11:22:00;8.23;;;2.65;;
36225;SDS011;22268;52.010;4.716;2022-10-16T11:26:57;13.10;;;3.47;;
36225;SDS011;22268;52.010;4.716;2022-10-16T11:29:28;12.45;;;3.20;;
36225;SDS011;22268;52.010;4.716;2022-10-16T11:32:06;13.23;;;2.47;;
36225;SDS011;22268;52.010;4.716;2022-10-16T11:34:38;7.62;;;2.05;;
36225;SDS011;22268;52.010;4.716;2022-10-16T11:39:58;10.15;;;3.08;;
36225;SDS011;22268;52.010;4.716;2022-10-16T11:42:30;17.23;;;3.05;;
36225;SDS011;22268;52.010;4.716;2022-10-16T11:45:33;10.30;;;3.08;;
36225;SDS011;22268;52.010;4.716;2022-10-16T11:51:33;16.75;;;3.78;;
36225;SDS011;22268;52.010;4.716;2022-10-16T11:57:07;10.70;;;2.58;;
36225;SDS011;22268;52.010;4.716;2022-10-16T12:00:14;12.15;;;3.17;;
36225;SDS011;22268;52.010;4.716;2022-10-16T12:05:25;13.38;;;3.33;;
36225;SDS011;22268;52.010;4.716;2022-10-16T12:08:01;10.10;;;2.62;;
36225;SDS011;22268;52.010;4.716;2022-10-16T12:10:36;10.82;;;2.62;;
36225;SDS011;22268;52.010;4.716;2022-10-16T12:13:26;8.98;;;2.60;;
36225;SDS011;22268;52.010;4.716;2022-10-16T12:18:45;11.05;;;2.55;;
36225;SDS011;22268;52.010;4.716;2022-10-16T12:21:13;11.48;;;2.60;;
36225;SDS011;22268;52.010;4.716;2022-10-16T12:26:25;14.73;;;3.08;;
36225;SDS011;22268;52.010;4.716;2022-10-16T12:28:51;7.65;;;2.80;;
36225;SDS011;22268;52.010;4.716;2022-10-16T12:31:19;9.38;;;2.58;;
36225;SDS011;22268;52.010;4.716;2022-10-16T12:34:03;11.45;;;2.83;;
36225;SDS011;22268;52.010;4.716;2022-10-16T12:36:34;13.32;;;3.25;;
36225;SDS011;22268;52.010;4.716;2022-10-16T12:39:00;11.25;;;3.08;;
36225;SDS011;22268;52.010;4.716;2022-10-16T12:41:46;13.73;;;3.03;;
36225;SDS011;22268;52.010;4.716;2022-10-16T12:46:58;14.63;;;3.00;;
36225;SDS011;22268;52.010;4.716;2022-10-16T12:49:36;11.98;;;2.92;;
36225;SDS011;22268;52.010;4.716;2022-10-16T12:55:16;14.25;;;3.37;;
36225;SDS011;22268;52.010;4.716;2022-10-16T12:57:51;10.65;;;2.67;;
36225;SDS011;22268;52.010;4.716;2022-10-16T13:17:13;13.52;;;2.67;;
36225;SDS011;22268;52.010;4.716;2022-10-16T13:28:18;17.48;;;4.45;;
36225;SDS011;22268;52.010;4.716;2022-10-16T13:33:52;11.73;;;2.60;;
36225;SDS011;22268;52.010;4.716;2022-10-16T13:36:33;11.15;;;2.80;;
36225;SDS011;22268;52.010;4.716;2022-10-16T13:42:06;11.88;;;2.65;;
36225;SDS011;22268;52.010;4.716;2022-10-16T13:47:37;10.45;;;2.95;;
36225;SDS011;22268;52.010;4.716;2022-10-16T13:50:04;12.15;;;2.90;;
36225;SDS011;22268;52.010;4.716;2022-10-16T13:52:49;10.05;;;2.78;;
36225;SDS011;22268;52.010;4.716;2022-10-16T13:55:25;10.10;;;3.28;;
36225;SDS011;22268;52.010;4.716;2022-10-16T13:57:50;8.27;;;2.35;;
36225;SDS011;22268;52.010;4.716;2022-10-16T14:09:52;15.75;;;3.33;;
36225;SDS011;22268;52.010;4.716;2022-10-16T14:15:18;13.50;;;2.85;;
36225;SDS011;22268;52.010;4.716;2022-10-16T14:17:45;15.02;;;2.80;;
36225;SDS011;22268;52.010;4.716;2022-10-16T14:20:14;11.80;;;2.78;;
36225;SDS011;22268;52.010;4.716;2022-10-16T14:22:47;20.62;;;3.62;;
36225;SDS011;22268;52.010;4.716;2022-10-16T14:25:43;13.20;;;3.25;;
36225;SDS011;22268;52.010;4.716;2022-10-16T14:28:21;12.57;;;3.00;;
36225;SDS011;22268;52.010;4.716;2022-10-16T14:34:28;9.02;;;2.45;;
36225;SDS011;22268;52.010;4.716;2022-10-16T14:36:54;13.00;;;2.62;;
36225;SDS011;22268;52.010;4.716;2022-10-16T14:39:40;12.70;;;3.25;;
36225;SDS011;22268;52.010;4.716;2022-10-16T14:45:18;11.75;;;3.33;;
36225;SDS011;22268;52.010;4.716;2022-10-16T14:48:14;16.50;;;2.83;;
36225;SDS011;22268;52.010;4.716;2022-10-16T14:50:44;15.10;;;3.87;;
36225;SDS011;22268;52.010;4.716;2022-10-16T14:53:52;11.95;;;2.95;;
36225;SDS011;22268;52.010;4.716;2022-10-16T14:56:06;12.15;;;3.72;;
36225;SDS011;22268;52.010;4.716;2022-10-16T15:01:15;11.95;;;2.78;;
36225;SDS011;22268;52.010;4.716;2022-10-16T15:06:51;12.40;;;2.90;;
36225;SDS011;22268;52.010;4.716;2022-10-16T15:09:21;13.80;;;3.12;;
36225;SDS011;22268;52.010;4.716;2022-10-16T15:11:47;14.57;;;2.92;;
36225;SDS011;22268;52.010;4.716;2022-10-16T15:23:46;20.20;;;4.30;;
36225;SDS011;22268;52.010;4.716;2022-10-16T15:26:18;18.67;;;3.95;;
36225;SDS011;22268;52.010;4.716;2022-10-16T15:28:44;11.60;;;2.62;;
36225;SDS011;22268;52.010;4.716;2022-10-16T15:31:09;22.37;;;4.15;;
36225;SDS011;22268;52.010;4.716;2022-10-16T15:33:38;15.68;;;3.58;;
36225;SDS011;22268;52.010;4.716;2022-10-16T15:39:06;14.73;;;3.00;;
36225;SDS011;22268;52.010;4.716;2022-10-16T15:41:36;14.25;;;3.62;;
36225;SDS011;22268;52.010;4.716;2022-10-16T15:44:02;17.55;;;3.90;;
36225;SDS011;22268;52.010;4.716;2022-10-16T15:46:27;13.00;;;2.95;;
36225;SDS011;22268;52.010;4.716;2022-10-16T15:48:55;18.70;;;3.30;;
36225;SDS011;22268;52.010;4.716;2022-10-16T15:51:27;21.77;;;5.53;;
36225;SDS011;22268;52.010;4.716;2022-10-16T15:53:57;20.62;;;5.53;;
36225;SDS011;22268;52.010;4.716;2022-10-16T15:56:26;19.08;;;5.60;;
36225;SDS011;22268;52.010;4.716;2022-10-16T16:01:53;18.62;;;5.00;;
36225;SDS011;22268;52.010;4.716;2022-10-16T16:04:20;16.52;;;4.90;;
36225;SDS011;22268;52.010;4.716;2022-10-16T16:10:13;14.10;;;4.35;;
36225;SDS011;22268;52.010;4.716;2022-10-16T16:12:38;14.98;;;5.35;;
36225;SDS011;22268;52.010;4.716;2022-10-16T16:15:04;20.48;;;4.95;;
36225;SDS011;22268;52.010;4.716;2022-10-16T16:17:51;21.10;;;5.55;;
36225;SDS011;22268;52.010;4.716;2022-10-16T16:25:41;19.15;;;4.53;;
36225;SDS011;22268;52.010;4.716;2022-10-16T16:31:17;19.42;;;5.18;;
36225;SDS011;22268;52.010;4.716;2022-10-16T16:33:47;19.08;;;4.75;;
36225;SDS011;22268;52.010;4.716;2022-10-16T16:36:13;14.63;;;4.53;;
36225;SDS011;22268;52.010;4.716;2022-10-16T16:41:44;11.68;;;6.00;;
36225;SDS011;22268;52.010;4.716;2022-10-16T16:44:24;19.50;;;8.45;;
36225;SDS011;22268;52.010;4.716;2022-10-16T16:49:46;20.40;;;9.18;;
36225;SDS011;22268;52.010;4.716;2022-10-16T16:52:20;25.90;;;8.77;;
36225;SDS011;22268;52.010;4.716;2022-10-16T16:55:12;22.27;;;8.90;;
36225;SDS011;22268;52.010;4.716;2022-10-16T16:57:37;37.25;;;17.02;;
36225;SDS011;22268;52.010;4.716;2022-10-16T17:03:33;25.35;;;9.50;;
36225;SDS011;22268;52.010;4.716;2022-10-16T17:13:02;20.55;;;7.53;;
36225;SDS011;22268;52.010;4.716;2022-10-16T17:15:33;22.95;;;6.32;;
36225;SDS011;22268;52.010;4.716;2022-10-16T17:21:15;20.40;;;5.22;;
36225;SDS011;22268;52.010;4.716;2022-10-16T17:29:52;23.48;;;6.12;;
36225;SDS011;22268;52.010;4.716;2022-10-16T17:32:40;18.30;;;5.97;;
36225;SDS011;22268;52.010;4.716;2022-10-16T17:35:29;25.20;;;5.90;;
36225;SDS011;22268;52.010;4.716;2022-10-16T17:37:55;19.75;;;6.47;;
36225;SDS011;22268;52.010;4.716;2022-10-16T17:40:29;22.83;;;6.87;;
36225;SDS011;22268;52.010;4.716;2022-10-16T17:43:01;18.40;;;5.93;;
36225;SDS011;22268;52.010;4.716;2022-10-16T17:45:39;20.42;;;6.57;;
36225;SDS011;22268;52.010;4.716;2022-10-16T18:00:49;25.98;;;9.48;;
36225;SDS011;22268;52.010;4.716;2022-10-16T18:15:31;29.40;;;7.80;;
36225;SDS011;22268;52.010;4.716;2022-10-16T18:21:23;18.27;;;6.22;;
36225;SDS011;22268;52.010;4.716;2022-10-16T18:24:07;26.33;;;7.55;;
36225;SDS011;22268;52.010;4.716;2022-10-16T18:30:07;39.63;;;8.70;;
36225;SDS011;22268;52.010;4.716;2022-10-16T18:33:11;15.98;;;5.95;;
36225;SDS011;22268;52.010;4.716;2022-10-16T18:51:14;18.25;;;5.72;;
36225;SDS011;22268;52.010;4.716;2022-10-16T20:23:32;23.98;;;11.18;;
36225;SDS011;22268;52.010;4.716;2022-10-16T20:26:38;15.98;;;9.90;;
36225;SDS011;22268;52.010;4.716;2022-10-16T20:35:14;18.83;;;11.00;;
36225;SDS011;22268;52.010;4.716;2022-10-16T20:59:25;18.20;;;13.13;;
36225;SDS011;22268;52.010;4.716;2022-10-16T21:05:09;16.55;;;13.75;;
36225;SDS011;22268;52.010;4.716;2022-10-16T21:22:15;17.98;;;11.60;;
36225;SDS011;22268;52.010;4.716;2022-10-16T21:24:40;20.60;;;10.25;;
36225;SDS011;22268;52.010;4.716;2022-10-16T21:27:09;14.48;;;10.18;;
36225;SDS011;22268;52.010;4.716;2022-10-16T21:35:22;14.65;;;8.88;;
36225;SDS011;22268;52.010;4.716;2022-10-16T21:40:48;9.57;;;8.13;;
36225;SDS011;22268;52.010;4.716;2022-10-16T21:43:36;13.25;;;7.60;;
36225;SDS011;22268;52.010;4.716;2022-10-16T21:46:12;13.68;;;8.60;;
36225;SDS011;22268;52.010;4.716;2022-10-16T21:52:04;11.60;;;7.68;;
36225;SDS011;22268;52.010;4.716;2022-10-16T21:54:43;11.30;;;8.05;;
36225;SDS011;22268;52.010;4.716;2022-10-16T22:00:03;12.05;;;7.78;;
36225;SDS011;22268;52.010;4.716;2022-10-16T22:24:26;8.73;;;6.15;;
36225;SDS011;22268;52.010;4.716;2022-10-16T22:27:20;12.15;;;6.32;;
36225;SDS011;22268;52.010;4.716;2022-10-16T22:30:18;12.00;;;6.70;;
36225;SDS011;22268;52.010;4.716;2022-10-16T22:51:48;12.30;;;8.70;;
36225;SDS011;22268;52.010;4.716;2022-10-16T22:57:38;11.85;;;8.82;;
36225;SDS011;22268;52.010;4.716;2022-10-16T23:00:33;11.90;;;8.93;;
36225;SDS011;22268;52.010;4.716;2022-10-16T23:03:28;12.68;;;9.20;;
36225;SDS011;22268;52.010;4.716;2022-10-16T23:06:03;13.98;;;9.13;;
36225;SDS011;22268;52.010;4.716;2022-10-16T23:08:43;10.40;;;9.13;;
36225;SDS011;22268;52.010;4.716;2022-10-16T23:11:31;11.85;;;9.43;;
36225;SDS011;22268;52.010;4.716;2022-10-16T23:14:03;17.48;;;9.20;;
36225;SDS011;22268;52.010;4.716;2022-10-16T23:57:09;18.23;;;12.95;;
36225;SDS011;22268;52.010;4.716;2022-10-16T23:59:34;19.33;;;13.73;;
